x

Ilm3 - 27 Miles Se Of Wrightsville Beach, Nc (41037) Weather Station

2:00pm - Sun 20th Apr 2014 All times are EDT. -4 hours from GMT.

  • Wind
    38mph, 45mph gusts
  • Air Temp 54°f
  • Sea Pressure 1015.2mb
  • Ilm3 - 27 Miles Se Of Wrightsville Beach, Nc
  • Ilm3 - 27 Miles Se Of Wrightsville Beach, Nc

More Historic Weather Station data

Upgrade to MSW Pro to gain access to the past 30 days of data for over 8000 Wavebouys and Weather Stations around the globe.

Join Pro

Comparision Forecast

View Surf forecast
   
Sun 04/20 2:00pm 38 45 mph 1015.2mb 54f
1:00pm 34 45 mph 1014.9mb 55f
12:00pm 38 47 mph 1013.9mb 55f
11:00am 38 47 mph 1014.5mb 54f
10:00am 31 36 mph 1015.1mb 54f
9:00am 29 38 mph 1015mb 54f
8:00am 29 38 mph 1015mb 54f
7:00am 31 38 mph 1014.6mb 55f
6:00am 31 36 mph 1013.4mb 56f
5:00am 31 36 mph 1013.3mb 57f
4:00am 36 40 mph 1014.2mb 56f
3:00am 36 43 mph 1014.4mb 56f
2:00am 31 40 mph 1015.4mb 56f
1:00am 40 47 mph 1015mb 56f
12:00am 34 43 mph 1015.7mb 55f
Sat 04/19 11:00pm 34 40 mph 1015.3mb 55f
10:00pm 36 43 mph 1015.7mb 54f
9:00pm 40 47 mph 1015.9mb 54f
8:00pm 34 40 mph 1016.2mb 55f
7:00pm 34 38 mph 1015.5mb 55f
6:00pm 34 38 mph 1015.8mb 55f
5:00pm 36 43 mph 1015mb 57f
4:00pm 36 43 mph 1014.6mb 57f
3:00pm 40 47 mph 1014.3mb 57f
2:00pm 29 38 mph 1014.7mb 57f
1:00pm 29 34 mph 1015.5mb 58f
12:00pm 29 36 mph 1015.6mb 58f
11:00am 36 43 mph 1016.4mb 57f
10:00am 27 34 mph 1015.4mb 58f
9:00am 31 40 mph 1013.6mb 58f
8:00am 31 36 mph 1015.4mb 57f
7:00am 31 36 mph 1015.8mb 56f
6:00am 31 36 mph 1014.7mb 56f
5:00am 34 40 mph 1015.2mb 57f
4:00am 34 40 mph 1015mb 57f
3:00am 29 38 mph 1015.6mb 57f
2:00am 34 40 mph 1016.5mb 56f
1:00am 31 38 mph 1018.9mb 56f
12:00am 34 38 mph 1018.9mb 54f
Fri 04/18 11:00pm 29 36 mph 1020.4mb 54f
10:00pm 27 34 mph 1021.4mb 55f
9:00pm 31 38 mph 1021.7mb 54f
8:00pm 29 34 mph 1021.2mb 55f
7:00pm 25 29 mph 1021.7mb 56f
6:00pm 25 27 mph 1022.1mb 58f
5:00pm 25 31 mph 1022.6mb 58f
4:00pm 22 27 mph 1022.9mb 57f
3:00pm 22 27 mph 1024.3mb 57f
1:00pm 25 27 mph 1026.2mb 54f
12:00pm 20 25 mph 1026.8mb 54f
11:00am 22 27 mph 1027.3mb 52f
10:00am 20 25 mph 1027mb 52f
9:00am 22 27 mph 1027.1mb 50f
8:00am 22 27 mph 1026.8mb 51f
7:00am 25 27 mph 1026.6mb 50f
6:00am 25 29 mph 1026.3mb 51f
5:00am 25 29 mph 1026.6mb 51f
4:00am 25 29 mph 1026.8mb 51f
3:00am 27 31 mph 1027mb 51f
2:00am 25 29 mph 1027.4mb 52f
1:00am 29 34 mph 1028.4mb 52f
12:00am 25 29 mph 1028.6mb 54f
Thu 04/17 11:00pm 27 31 mph 1028.9mb 55f
10:00pm 25 31 mph 1028.7mb 55f
9:00pm 27 31 mph 1028.7mb 56f
8:00pm 27 31 mph 1028.4mb 57f
7:00pm 27 31 mph 1027.7mb 57f
6:00pm 25 29 mph 1028.7mb 58f
5:00pm 27 31 mph 1028.6mb 58f
4:00pm 25 29 mph 1029.5mb 57f
3:00pm 25 29 mph 1030.4mb 57f
2:00pm 27 29 mph 1030.1mb 56f
1:00pm 20 25 mph 1030.8mb 56f
12:00pm 25 29 mph 1030.9mb 54f
11:00am 25 27 mph 1030.6mb 53f
10:00am 25 27 mph 1030.5mb 51f
9:00am 25 29 mph 1030mb 51f
8:00am 25 31 mph 1029.1mb 49f
7:00am 27 31 mph 1028.6mb 48f
6:00am 29 34 mph 1028.1mb 47f
5:00am 27 34 mph 1027.8mb 49f
4:00am 27 29 mph 1027.9mb 48f
3:00am 25 29 mph 1028.7mb 49f
2:00am 25 29 mph 1029.1mb 48f
1:00am 22 27 mph 1029.3mb 48f
12:00am 29 34 mph 1029.1mb 48f
Wed 04/16 11:00pm 29 34 mph 1029.1mb 48f
10:00pm 27 34 mph 1029.1mb 49f
9:00pm 27 31 mph 1029mb 49f
8:00pm 22 27 mph 1028.2mb 49f